createdAt,value
2022-12-03T00:03:35.920Z,102768.59
2022-12-03T00:07:45.670Z,102760.03
2022-12-03T00:12:01.988Z,102763.66
2022-12-03T00:16:25.719Z,102748.78
2022-12-03T00:20:47.362Z,102743.78
2022-12-03T00:24:52.927Z,102742.31
2022-12-03T00:29:06.021Z,102743.06
2022-12-03T00:33:13.867Z,102746.84
2022-12-03T00:37:26.678Z,102740.28
2022-12-03T00:45:54.112Z,102729.88
2022-12-03T00:50:02.631Z,102730.50
2022-12-03T00:54:19.772Z,102735.75
2022-12-03T00:58:29.732Z,102737.81
2022-12-03T01:02:42.898Z,102737.75
2022-12-03T01:06:47.559Z,102740.38
2022-12-03T01:10:55.094Z,102745.72
2022-12-03T01:15:04.467Z,102744.66
2022-12-03T01:19:24.248Z,102744.63
2022-12-03T01:28:29.271Z,102747.13
2022-12-03T01:32:45.828Z,102748.91
2022-12-03T01:41:55.355Z,102734.25
2022-12-03T01:46:03.887Z,102740.50
2022-12-03T01:50:36.115Z,102723.81
2022-12-03T01:55:59.236Z,102724.72
2022-12-03T01:59:49.596Z,102720.50
2022-12-03T02:04:40.379Z,102725.31
2022-12-03T02:09:10.563Z,102734.13
2022-12-03T02:13:43.727Z,102732.97
2022-12-03T02:19:01.741Z,102716.91
2022-12-03T02:23:16.800Z,102726.47
2022-12-03T02:32:07.506Z,102735.91
2022-12-03T02:40:49.369Z,102732.41
2022-12-03T02:45:14.177Z,102724.50
2022-12-03T02:49:41.443Z,102721.16
2022-12-03T02:54:10.153Z,102716.13
2022-12-03T02:58:42.921Z,102707.03
2022-12-03T03:02:58.427Z,102710.63
2022-12-03T03:07:17.057Z,102703.31
2022-12-03T03:11:35.718Z,102717.81
2022-12-03T03:16:17.601Z,102716.53
2022-12-03T03:20:34.179Z,102720.31
2022-12-03T03:25:27.877Z,102714.75
2022-12-03T03:30:34.152Z,102716.16
2022-12-03T03:35:47.715Z,102703.50
2022-12-03T07:08:41.634Z,102593.56
2022-12-03T08:04:18.236Z,102580.94
2022-12-03T08:08:47.732Z,102578.03
2022-12-03T08:13:12.649Z,102584.38
2022-12-03T09:59:34.718Z,102534.81
2022-12-03T10:03:46.033Z,102530.50
2022-12-03T10:07:49.047Z,102518.84
2022-12-03T10:11:54.526Z,102524.88
2022-12-03T10:15:58.547Z,102526.78
2022-12-03T10:20:01.631Z,102513.78
2022-12-03T10:24:17.862Z,102520.19
2022-12-03T10:28:38.505Z,102520.72
2022-12-03T10:32:46.636Z,102517.84
2022-12-03T10:37:08.126Z,102512.69
2022-12-03T10:41:28.737Z,102513.06
2022-12-03T10:45:30.188Z,102521.81
2022-12-03T10:49:31.790Z,102511.44
2022-12-03T10:53:35.658Z,102514.75
2022-12-03T10:57:41.092Z,102511.06
2022-12-03T11:01:45.768Z,102500.63
2022-12-03T11:05:47.981Z,102493.50
2022-12-03T11:09:51.146Z,102494.63
2022-12-03T11:14:03.627Z,102494.06
2022-12-03T11:18:05.075Z,102486.47
2022-12-03T11:22:17.438Z,102481.97
2022-12-03T11:26:38.881Z,102466.59
2022-12-03T11:30:53.220Z,102459.50
2022-12-03T11:34:54.993Z,102461.78
2022-12-03T11:38:56.620Z,102455.31
2022-12-03T11:42:58.096Z,102454.75
2022-12-03T11:47:07.529Z,102436.88
2022-12-03T14:07:24.400Z,102373.34
2022-12-03T14:11:44.637Z,102378.38
2022-12-03T14:15:46.114Z,102366.91
2022-12-03T14:19:47.507Z,102370.31
2022-12-03T14:23:49.284Z,102375.81
2022-12-03T14:27:50.880Z,102364.72
2022-12-03T14:31:52.356Z,102362.91
2022-12-03T14:35:55.840Z,102354.63
2022-12-03T14:39:57.535Z,102358.16
2022-12-03T14:43:59.175Z,102343.44
2022-12-03T14:48:00.583Z,102351.88
2022-12-03T14:52:02.118Z,102346.41
2022-12-03T14:56:03.563Z,102342.59
2022-12-03T15:00:07.022Z,102343.25
2022-12-03T15:04:08.848Z,102349.91
2022-12-03T15:08:10.295Z,102352.47
2022-12-03T15:12:11.748Z,102348.09
2022-12-03T15:16:13.242Z,102348.81
2022-12-03T15:20:14.866Z,102348.44
2022-12-03T15:24:17.006Z,102346.41
2022-12-03T15:28:18.757Z,102339.00
2022-12-03T15:32:20.179Z,102347.03
2022-12-03T15:36:21.608Z,102343.56
2022-12-03T15:40:24.173Z,102345.09
2022-12-03T15:44:25.549Z,102346.31
2022-12-03T15:48:26.943Z,102341.91
2022-12-03T15:52:28.346Z,102339.97
2022-12-03T15:56:29.880Z,102348.75
2022-12-03T16:00:31.327Z,102342.97
2022-12-03T16:04:33.566Z,102354.03
2022-12-03T16:08:35.061Z,102352.28
2022-12-03T16:12:36.580Z,102356.09
2022-12-03T16:16:38.033Z,102347.41
2022-12-03T16:20:39.560Z,102349.19
2022-12-03T16:24:41.236Z,102353.69
2022-12-03T16:28:42.804Z,102355.06
2022-12-03T16:32:44.243Z,102351.69
2022-12-03T16:36:45.749Z,102355.63
2022-12-03T16:40:47.246Z,102357.00
2022-12-03T16:45:14.522Z,102353.78
2022-12-03T16:49:15.920Z,102358.03
2022-12-03T16:53:17.332Z,102359.19
2022-12-03T16:57:18.756Z,102365.81
2022-12-03T17:01:20.280Z,102370.88
2022-12-03T17:05:21.889Z,102373.00
2022-12-03T17:09:23.338Z,102372.06
2022-12-03T17:13:24.753Z,102369.38
2022-12-03T17:17:26.146Z,102370.72
2022-12-03T17:21:32.084Z,102364.41
2022-12-03T17:25:35.375Z,102369.59
2022-12-03T17:29:37.306Z,102369.69
2022-12-03T17:38:48.843Z,102370.25
2022-12-03T17:42:50.340Z,102359.41
2022-12-03T17:46:51.840Z,102369.34
2022-12-03T17:50:55.255Z,102356.09
2022-12-03T17:55:17.776Z,102350.53
2022-12-03T17:59:18.115Z,102356.88
2022-12-03T18:03:19.521Z,102354.75
2022-12-03T18:07:20.930Z,102364.25
2022-12-03T18:11:22.655Z,102363.81
2022-12-03T18:15:24.068Z,102362.31
2022-12-03T18:19:25.707Z,102365.22
2022-12-03T18:23:27.526Z,102372.19
2022-12-03T18:27:29.104Z,102368.78
2022-12-03T18:31:30.672Z,102378.59
2022-12-03T18:35:32.324Z,102374.19
2022-12-03T18:39:36.717Z,102370.72
2022-12-03T18:43:41.195Z,102370.72
2022-12-03T18:47:43.303Z,102370.59
2022-12-03T18:51:44.910Z,102374.31
2022-12-03T18:55:47.563Z,102380.56
2022-12-03T18:59:53.181Z,102373.41
2022-12-03T19:03:54.948Z,102378.41
2022-12-03T19:07:57.174Z,102387.44
2022-12-03T19:11:58.638Z,102382.31
2022-12-03T19:16:04.259Z,102389.38
2022-12-03T19:20:09.071Z,102391.13
2022-12-03T19:24:26.148Z,102388.28
2022-12-03T19:28:28.666Z,102382.94
2022-12-03T19:32:30.283Z,102378.59
2022-12-03T19:36:32.678Z,102391.22
2022-12-03T19:40:34.100Z,102393.44
2022-12-03T19:44:35.584Z,102391.22
2022-12-03T19:48:39.315Z,102396.09
2022-12-03T19:52:40.703Z,102398.13
2022-12-03T19:56:42.962Z,102391.94
2022-12-03T20:00:44.392Z,102395.69
2022-12-03T20:04:45.820Z,102396.13
2022-12-03T20:08:47.389Z,102389.66
2022-12-03T20:12:48.863Z,102396.78
2022-12-03T20:16:50.382Z,102410.44
2022-12-03T20:20:51.831Z,102402.56
2022-12-03T20:24:53.538Z,102393.34
2022-12-03T20:28:56.489Z,102394.81
2022-12-03T20:32:57.927Z,102392.81
2022-12-03T20:36:59.426Z,102391.19
2022-12-03T20:41:02.325Z,102392.25
2022-12-03T20:45:04.206Z,102392.44
2022-12-03T20:49:05.614Z,102396.31
2022-12-03T20:53:24.235Z,102400.03
2022-12-03T20:57:26.743Z,102397.78
2022-12-03T21:01:28.797Z,102405.28
2022-12-03T21:05:30.333Z,102393.41
2022-12-03T21:09:31.833Z,102400.59
2022-12-03T21:13:33.267Z,102392.06
2022-12-03T21:17:34.669Z,102394.72
2022-12-03T21:21:36.318Z,102394.03
2022-12-03T21:25:38.271Z,102394.81
2022-12-03T21:29:39.744Z,102381.97
2022-12-03T21:33:41.804Z,102382.59
2022-12-03T21:37:43.209Z,102391.09
2022-12-03T21:42:19.054Z,102388.09
2022-12-03T21:47:12.752Z,102397.91
2022-12-03T21:50:30.207Z,102396.31
2022-12-03T21:54:31.616Z,102388.69
2022-12-03T21:58:33.033Z,102401.59
2022-12-03T22:02:34.561Z,102405.94
2022-12-03T22:06:36.057Z,102395.75
2022-12-03T22:10:37.554Z,102401.38
2022-12-03T22:14:39.805Z,102397.84
2022-12-03T22:18:42.697Z,102395.63
2022-12-03T22:22:44.124Z,102392.00
2022-12-03T22:26:46.442Z,102388.00
2022-12-03T22:30:47.868Z,102391.44
2022-12-03T22:34:49.673Z,102388.81
2022-12-03T22:38:51.431Z,102385.91
2022-12-03T22:42:52.914Z,102385.25
2022-12-03T22:46:54.439Z,102384.97
2022-12-03T22:50:55.896Z,102382.22
2022-12-03T22:54:57.338Z,102378.91
2022-12-03T22:58:59.029Z,102370.38
2022-12-03T23:03:00.987Z,102371.78
2022-12-03T23:07:02.503Z,102378.72
2022-12-03T23:11:03.904Z,102377.91
2022-12-03T23:15:06.180Z,102372.94
2022-12-03T23:19:07.654Z,102376.25
2022-12-03T23:23:09.063Z,102383.03
2022-12-03T23:27:10.517Z,102373.97
2022-12-03T23:31:29.636Z,102372.44
2022-12-03T23:35:31.862Z,102375.13
2022-12-03T23:39:33.264Z,102379.34
2022-12-03T23:43:35.176Z,102365.69
2022-12-03T23:47:36.623Z,102369.34
2022-12-03T23:51:38.269Z,102364.91
2022-12-03T23:55:40.405Z,102363.69
2022-12-03T23:59:42.120Z,102373.66
